Time;durP1;ratioP1;P1;durP2;ratioP2;P2;SDS_P1;SDS_P2;PMS_P1;PMS_P2;Temp;Humidity;BMP_temperature;BMP_pressure;BME280_temperature;BME280_humidity;BME280_pressure;Samples;Min_cycle;Max_cycle;Signal;HPM_P1;HPM_P2
2021/09/06 00:00:28;;;;;;;6.68;3.80;;;16.10;90.20;;;;;;4918985;29;20052;-83
2021/09/06 00:02:56;;;;;;;8.85;4.47;;;16.00;89.90;;;;;;4919407;29;20055;-84
2021/09/06 00:05:22;;;;;;;8.88;4.30;;;16.00;89.90;;;;;;4919256;29;20455;-84
2021/09/06 00:07:48;;;;;;;6.35;3.88;;;15.90;90.10;;;;;;4920140;29;20039;-84
2021/09/06 00:10:19;;;;;;;7.68;4.25;;;15.90;90.20;;;;;;4919748;29;20047;-84
2021/09/06 00:12:45;;;;;;;8.13;4.35;;;15.90;90.30;;;;;;4918398;29;20047;-84
2021/09/06 00:15:11;;;;;;;6.85;3.90;;;15.80;90.40;;;;;;4919529;29;20588;-84
2021/09/06 00:17:37;;;;;;;8.88;4.00;;;15.80;90.40;;;;;;4918340;29;20051;-84
2021/09/06 00:20:04;;;;;;;6.22;4.10;;;15.70;90.50;;;;;;4919359;29;20052;-84
2021/09/06 00:22:30;;;;;;;7.43;4.00;;;15.70;90.50;;;;;;4919305;29;20047;-85
2021/09/06 00:24:55;;;;;;;8.15;4.45;;;15.60;90.60;;;;;;4918597;29;20801;-85
2021/09/06 00:27:21;;;;;;;7.85;4.07;;;15.60;90.50;;;;;;4919249;29;20052;-84
2021/09/06 00:29:46;;;;;;;7.10;4.18;;;15.60;90.60;;;;;;4919440;29;20044;-85
2021/09/06 00:32:12;;;;;;;7.75;4.60;;;15.50;90.70;;;;;;4918786;29;20059;-84
2021/09/06 00:34:37;;;;;;;8.00;4.53;;;15.50;90.70;;;;;;4919611;29;20120;-85
2021/09/06 00:37:03;;;;;;;7.95;4.28;;;15.50;90.70;;;;;;4919077;29;20087;-85
2021/09/06 00:39:28;;;;;;;7.60;4.30;;;15.40;90.70;;;;;;4935723;29;20071;-84
2021/09/06 00:41:54;;;;;;;7.35;4.70;;;15.40;90.80;;;;;;4935625;29;20059;-84
2021/09/06 00:44:19;;;;;;;7.57;4.90;;;15.40;90.80;;;;;;4935756;29;20381;-84
2021/09/06 00:46:47;;;;;;;7.82;4.93;;;15.30;90.80;;;;;;4935384;29;20040;-85
2021/09/06 00:49:15;;;;;;;7.68;4.40;;;15.30;90.80;;;;;;4919853;29;20471;-85
2021/09/06 00:51:41;;;;;;;8.80;4.50;;;15.30;90.90;;;;;;4918665;29;20506;-84
2021/09/06 00:54:06;;;;;;;7.82;4.93;;;15.30;90.80;;;;;;4935834;29;20047;-85
2021/09/06 00:56:33;;;;;;;7.07;4.05;;;15.30;90.90;;;;;;4918872;29;20063;-84
2021/09/06 00:58:59;;;;;;;8.23;4.68;;;15.20;90.80;;;;;;4919856;29;20099;-84
2021/09/06 01:01:25;;;;;;;8.15;4.20;;;15.20;90.90;;;;;;4918406;29;20063;-84
2021/09/06 01:03:50;;;;;;;7.43;3.92;;;15.20;91.00;;;;;;4919230;29;20094;-84
2021/09/06 01:06:16;;;;;;;6.80;4.15;;;15.10;91.00;;;;;;4919137;29;20051;-84
2021/09/06 01:08:41;;;;;;;8.55;4.32;;;15.00;90.90;;;;;;4918641;29;20079;-84
2021/09/06 01:11:07;;;;;;;7.25;4.38;;;15.00;91.00;;;;;;4918633;29;20539;-84
2021/09/06 01:13:33;;;;;;;6.68;3.90;;;15.00;91.10;;;;;;4919606;29;20440;-84
2021/09/06 01:15:58;;;;;;;7.22;4.20;;;15.00;91.20;;;;;;4918560;29;20051;-84
2021/09/06 01:18:24;;;;;;;7.38;3.95;;;14.90;91.20;;;;;;4919454;29;20043;-84
2021/09/06 01:20:50;;;;;;;8.07;4.70;;;14.80;91.20;;;;;;4918579;29;20055;-84
2021/09/06 01:23:15;;;;;;;6.68;3.88;;;14.80;91.30;;;;;;4918672;29;20047;-84
2021/09/06 01:25:41;;;;;;;7.00;4.25;;;14.80;91.30;;;;;;4918417;29;20050;-84
2021/09/06 01:28:06;;;;;;;7.28;4.25;;;14.80;91.30;;;;;;4918482;29;20087;-84
2021/09/06 01:30:32;;;;;;;6.60;3.92;;;14.70;91.30;;;;;;4918442;29;20052;-84
2021/09/06 01:32:58;;;;;;;7.18;4.38;;;14.70;91.20;;;;;;4921237;29;20403;-84
2021/09/06 01:35:23;;;;;;;7.40;4.30;;;14.70;91.20;;;;;;4921687;29;20206;-84
2021/09/06 01:37:49;;;;;;;7.00;4.40;;;14.60;91.10;;;;;;4921790;29;20047;-85
2021/09/06 01:40:15;;;;;;;7.78;4.18;;;14.60;91.00;;;;;;4922550;29;20047;-84
2021/09/06 01:42:40;;;;;;;5.97;3.90;;;14.60;91.00;;;;;;4921604;29;20040;-83
2021/09/06 01:45:07;;;;;;;7.03;4.15;;;14.50;90.90;;;;;;4922431;29;20106;-84
2021/09/06 01:47:32;;;;;;;6.20;3.90;;;14.50;90.90;;;;;;4921632;29;20138;-84
2021/09/06 01:49:58;;;;;;;7.57;4.25;;;14.40;91.00;;;;;;4921780;29;20058;-84
2021/09/06 01:52:25;;;;;;;7.43;4.35;;;14.40;91.20;;;;;;4921517;29;20036;-84
2021/09/06 01:54:50;;;;;;;7.28;4.45;;;14.40;91.20;;;;;;4921244;29;20259;-85
2021/09/06 01:57:16;;;;;;;7.60;4.57;;;14.30;91.30;;;;;;4921028;29;20566;-84
2021/09/06 01:59:41;;;;;;;8.63;4.50;;;14.30;91.30;;;;;;4937844;29;20143;-84
2021/09/06 02:02:07;;;;;;;7.65;4.75;;;14.30;91.40;;;;;;4921679;29;20056;-84
2021/09/06 02:04:33;;;;;;;7.90;4.80;;;14.30;91.50;;;;;;4937983;29;20127;-84
2021/09/06 02:06:58;;;;;;;8.10;4.95;;;14.20;91.50;;;;;;4921373;29;20054;-85
2021/09/06 02:09:24;;;;;;;8.43;4.60;;;14.10;91.50;;;;;;4921863;29;20079;-84
2021/09/06 02:11:49;;;;;;;8.05;4.95;;;14.10;91.60;;;;;;4920246;29;20079;-84
2021/09/06 02:14:15;;;;;;;7.82;4.82;;;14.10;91.60;;;;;;4922500;29;20047;-84
2021/09/06 02:16:40;;;;;;;7.03;4.35;;;14.10;91.70;;;;;;4921779;29;20091;-84
2021/09/06 02:19:06;;;;;;;8.63;4.45;;;14.10;91.60;;;;;;4920974;29;20519;-84
2021/09/06 02:21:31;;;;;;;6.57;4.22;;;14.00;91.50;;;;;;4921747;29;20051;-84
2021/09/06 02:24:01;;;;;;;7.15;4.47;;;14.00;91.60;;;;;;4921944;29;20047;-84
2021/09/06 02:26:27;;;;;;;8.02;4.60;;;14.00;91.70;;;;;;4919917;29;20051;-84
2021/09/06 02:28:52;;;;;;;6.85;4.70;;;14.00;91.70;;;;;;4921243;29;20071;-84
2021/09/06 02:31:18;;;;;;;8.18;5.20;;;13.90;91.80;;;;;;4937780;29;20070;-84
2021/09/06 02:33:44;;;;;;;7.18;4.57;;;13.90;91.80;;;;;;4920993;29;20082;-85
2021/09/06 02:36:09;;;;;;;7.15;4.40;;;13.90;91.80;;;;;;4921054;29;20046;-84
2021/09/06 02:38:35;;;;;;;8.63;4.68;;;13.80;91.80;;;;;;4920332;29;20051;-85
2021/09/06 02:41:01;;;;;;;7.80;4.70;;;13.80;91.80;;;;;;4938376;29;20056;-84
2021/09/06 02:43:26;;;;;;;7.05;4.53;;;13.80;91.80;;;;;;4921439;29;20046;-84
2021/09/06 02:45:52;;;;;;;6.70;4.28;;;13.70;91.70;;;;;;4919709;29;20055;-84
2021/09/06 02:48:17;;;;;;;7.75;4.63;;;13.70;91.80;;;;;;4921199;29;20070;-85
2021/09/06 02:50:43;;;;;;;8.27;4.10;;;13.70;91.80;;;;;;4938462;29;20127;-86
2021/09/06 02:53:09;;;;;;;6.05;3.67;;;13.70;91.70;;;;;;4937585;29;20055;-85
2021/09/06 02:55:34;;;;;;;6.25;3.92;;;13.60;91.50;;;;;;4938370;29;20055;-84
2021/09/06 02:58:00;;;;;;;6.43;3.92;;;13.60;91.50;;;;;;4921336;29;20404;-85
2021/09/06 03:00:27;;;;;;;6.72;4.22;;;13.60;91.50;;;;;;4920660;29;20400;-84
2021/09/06 03:02:53;;;;;;;7.40;4.28;;;13.50;91.50;;;;;;4920550;29;20126;-85
2021/09/06 03:05:18;;;;;;;6.50;4.10;;;13.50;91.40;;;;;;4919728;29;20044;-86
2021/09/06 03:07:44;;;;;;;5.78;3.80;;;13.50;91.60;;;;;;4920243;29;20476;-84
2021/09/06 03:10:10;;;;;;;7.30;3.95;;;13.40;91.60;;;;;;4921086;29;20079;-84
2021/09/06 03:12:36;;;;;;;6.35;4.00;;;13.40;91.60;;;;;;4920975;29;20468;-85
2021/09/06 03:15:02;;;;;;;6.32;4.03;;;13.40;91.60;;;;;;4920029;29;20047;-84
2021/09/06 03:17:27;;;;;;;6.93;4.00;;;13.30;91.60;;;;;;4921097;29;20047;-85
2021/09/06 03:19:53;;;;;;;7.80;4.28;;;13.30;91.70;;;;;;4920596;29;20051;-85
2021/09/06 03:22:19;;;;;;;6.93;4.13;;;13.30;91.80;;;;;;4919289;29;20534;-84
2021/09/06 03:24:44;;;;;;;7.50;3.97;;;13.20;91.80;;;;;;4920059;29;20044;-85
2021/09/06 03:27:10;;;;;;;7.07;4.18;;;13.20;91.70;;;;;;4921445;29;20047;-84
2021/09/06 03:29:36;;;;;;;6.03;3.53;;;13.10;91.70;;;;;;4920046;29;20052;-84
2021/09/06 03:32:01;;;;;;;6.90;4.28;;;13.10;91.80;;;;;;4920641;29;20519;-84
2021/09/06 03:34:27;;;;;;;6.78;3.85;;;13.10;91.90;;;;;;4920713;29;20082;-85
2021/09/06 03:36:52;;;;;;;7.65;3.83;;;13.10;92.00;;;;;;4919205;29;20055;-85
2021/09/06 03:39:19;;;;;;;5.93;3.92;;;13.10;92.10;;;;;;4920798;29;20048;-85
2021/09/06 03:41:45;;;;;;;6.78;3.88;;;13.00;92.10;;;;;;4919544;29;20084;-86
2021/09/06 03:44:10;;;;;;;8.45;3.90;;;13.00;92.10;;;;;;4919938;29;20047;-85
2021/09/06 03:46:36;;;;;;;6.63;4.10;;;13.00;92.00;;;;;;4920411;29;20051;-85
2021/09/06 03:49:01;;;;;;;6.65;3.60;;;13.00;92.00;;;;;;4936805;29;20062;-85
2021/09/06 03:51:27;;;;;;;7.45;3.80;;;12.90;92.10;;;;;;4937584;29;20428;-84
2021/09/06 03:53:53;;;;;;;7.30;3.42;;;12.90;92.10;;;;;;4920085;29;20135;-85
2021/09/06 03:56:18;;;;;;;6.57;3.70;;;12.90;92.20;;;;;;4919072;29;20046;-85
2021/09/06 03:58:44;;;;;;;5.88;3.80;;;12.90;92.20;;;;;;4920449;29;20498;-85
2021/09/06 04:01:10;;;;;;;7.72;3.85;;;12.80;92.20;;;;;;4919950;29;20102;-85
2021/09/06 04:03:36;;;;;;;6.35;3.80;;;12.90;92.20;;;;;;4918627;29;20052;-85
2021/09/06 04:06:02;;;;;;;6.45;3.90;;;12.80;92.20;;;;;;4937088;29;20062;-84
2021/09/06 04:08:28;;;;;;;8.27;4.15;;;12.80;92.30;;;;;;4920739;29;20091;-85
2021/09/06 04:10:54;;;;;;;7.00;3.85;;;12.80;92.20;;;;;;4920191;29;20052;-85
2021/09/06 04:13:19;;;;;;;6.18;3.65;;;12.80;92.20;;;;;;4920218;29;20065;-85
2021/09/06 04:15:47;;;;;;;8.55;4.20;;;12.70;92.20;;;;;;4919359;29;20116;-84
2021/09/06 04:18:16;;;;;;;7.57;4.03;;;12.70;92.10;;;;;;4935681;29;20040;-84
2021/09/06 04:20:42;;;;;;;6.60;4.18;;;12.70;92.10;;;;;;4935913;29;20103;-85
2021/09/06 04:23:08;;;;;;;7.45;4.68;;;12.70;92.10;;;;;;4935032;29;20079;-85
2021/09/06 04:25:34;;;;;;;6.57;3.80;;;12.70;92.10;;;;;;4917541;29;20082;-85
2021/09/06 04:27:59;;;;;;;7.30;4.35;;;12.60;92.00;;;;;;4919133;29;20050;-85
2021/09/06 04:30:25;;;;;;;6.38;3.75;;;12.60;92.00;;;;;;4919439;29;20039;-85
2021/09/06 04:32:50;;;;;;;6.65;4.28;;;12.50;91.90;;;;;;4918858;29;20198;-85
2021/09/06 04:35:16;;;;;;;7.43;4.53;;;12.60;91.90;;;;;;4919121;29;20488;-85
2021/09/06 04:37:41;;;;;;;7.80;4.60;;;12.50;91.90;;;;;;4919520;29;20040;-84
2021/09/06 04:40:09;;;;;;;7.07;4.13;;;12.50;91.80;;;;;;4919227;29;20119;-85
2021/09/06 04:42:35;;;;;;;7.90;4.50;;;12.50;91.60;;;;;;4918809;29;20044;-86
2021/09/06 04:45:00;;;;;;;6.80;4.45;;;12.40;91.60;;;;;;4918919;29;20079;-85
2021/09/06 04:47:26;;;;;;;7.38;4.05;;;12.40;91.70;;;;;;4936339;29;20078;-85
2021/09/06 04:49:52;;;;;;;8.70;4.63;;;12.40;91.50;;;;;;4919899;29;20091;-84
2021/09/06 04:52:17;;;;;;;7.03;4.60;;;12.30;91.50;;;;;;4935322;29;20044;-84
2021/09/06 04:54:43;;;;;;;7.00;4.40;;;12.30;91.70;;;;;;4919419;29;20054;-85
2021/09/06 04:57:08;;;;;;;7.75;4.70;;;12.30;91.70;;;;;;4919654;29;20040;-84
2021/09/06 04:59:34;;;;;;;7.93;4.38;;;12.30;91.90;;;;;;4935532;29;20107;-85
2021/09/06 05:01:59;;;;;;;6.07;3.92;;;12.30;92.00;;;;;;4934286;29;20044;-85
2021/09/06 05:04:25;;;;;;;7.45;4.63;;;12.20;91.80;;;;;;4936347;29;20432;-85
2021/09/06 05:06:50;;;;;;;6.72;4.43;;;12.20;91.80;;;;;;4935214;29;20055;-85
2021/09/06 05:09:16;;;;;;;6.82;4.43;;;12.20;91.90;;;;;;4922893;29;20130;-84
2021/09/06 05:11:42;;;;;;;7.47;4.22;;;12.20;91.90;;;;;;4922975;29;20047;-84
2021/09/06 05:14:07;;;;;;;6.40;4.03;;;12.20;91.80;;;;;;4922935;29;20102;-85
2021/09/06 05:16:33;;;;;;;7.20;4.30;;;12.20;92.00;;;;;;4939501;29;20043;-84
2021/09/06 05:18:59;;;;;;;8.55;4.57;;;12.20;92.00;;;;;;4923139;29;20051;-84
2021/09/06 05:21:24;;;;;;;8.00;4.82;;;12.10;92.00;;;;;;4938963;29;20428;-85
2021/09/06 05:23:50;;;;;;;6.90;4.18;;;12.10;92.10;;;;;;4909549;29;21671;-84
2021/09/06 05:26:16;;;;;;;7.90;4.50;;;12.10;92.00;;;;;;4921557;29;20051;-85
2021/09/06 05:28:44;;;;;;;6.85;4.10;;;12.10;92.10;;;;;;4902916;29;20078;-83
2021/09/06 05:31:10;;;;;;;6.60;4.53;;;12.00;92.10;;;;;;4904242;29;20080;-83
2021/09/06 05:33:36;;;;;;;7.78;4.88;;;12.10;92.20;;;;;;4905826;29;20437;-83
2021/09/06 05:36:02;;;;;;;7.15;4.50;;;12.00;92.20;;;;;;4922185;29;20086;-83
2021/09/06 05:38:27;;;;;;;7.72;4.03;;;12.00;92.30;;;;;;4922345;29;20134;-83
2021/09/06 05:40:53;;;;;;;7.03;4.22;;;12.00;92.20;;;;;;4922117;29;20440;-83
2021/09/06 05:43:19;;;;;;;6.22;4.07;;;12.00;92.20;;;;;;4922034;29;20099;-83
2021/09/06 05:45:44;;;;;;;8.75;4.10;;;12.00;92.30;;;;;;4921922;29;20039;-83
2021/09/06 05:48:10;;;;;;;6.95;4.20;;;12.00;92.10;;;;;;4922074;29;20444;-83
2021/09/06 05:50:35;;;;;;;7.45;4.50;;;12.00;92.10;;;;;;4933658;29;20043;-83
2021/09/06 05:53:01;;;;;;;6.72;4.18;;;12.00;91.90;;;;;;4922231;29;20044;-83
2021/09/06 05:55:27;;;;;;;6.45;4.15;;;12.00;91.80;;;;;;4921561;29;20492;-83
2021/09/06 05:57:53;;;;;;;6.85;3.72;;;12.00;91.70;;;;;;4922025;29;20066;-83
2021/09/06 06:00:18;;;;;;;6.85;4.05;;;11.90;91.60;;;;;;4921842;29;20518;-84
2021/09/06 06:02:45;;;;;;;7.28;3.90;;;11.90;91.70;;;;;;4937642;29;20142;-83
2021/09/06 06:05:11;;;;;;;7.50;4.20;;;11.90;91.70;;;;;;4921222;29;20071;-83
2021/09/06 06:07:37;;;;;;;6.03;3.88;;;12.00;91.90;;;;;;4930667;29;20044;-85
2021/09/06 06:10:03;;;;;;;7.28;3.83;;;11.90;91.70;;;;;;4919420;29;20054;-85
2021/09/06 06:12:30;;;;;;;8.38;4.10;;;11.90;91.60;;;;;;4920495;29;20095;-83
2021/09/06 06:14:56;;;;;;;8.23;4.05;;;11.90;91.60;;;;;;4921951;29;20047;-84
2021/09/06 06:17:22;;;;;;;6.53;3.92;;;11.90;91.50;;;;;;4920478;29;20179;-85
2021/09/06 06:19:48;;;;;;;6.68;4.18;;;11.90;91.50;;;;;;4920874;29;20058;-83
2021/09/06 06:22:13;;;;;;;7.47;4.10;;;11.90;91.70;;;;;;4920963;29;20054;-82
2021/09/06 06:24:39;;;;;;;6.70;3.78;;;11.90;91.70;;;;;;4917469;29;20135;-83
2021/09/06 06:27:04;;;;;;;7.53;3.97;;;11.90;91.60;;;;;;4937760;29;20043;-83
2021/09/06 06:29:30;;;;;;;6.25;3.97;;;12.00;91.70;;;;;;4921412;29;20052;-83
2021/09/06 06:31:57;;;;;;;8.63;4.00;;;12.00;91.60;;;;;;4914390;29;20051;-83
2021/09/06 06:34:23;;;;;;;6.43;4.20;;;12.00;91.80;;;;;;4934534;29;20067;-83
2021/09/06 06:36:48;;;;;;;6.93;4.20;;;12.10;92.00;;;;;;4917618;29;20044;-83
2021/09/06 06:39:14;;;;;;;5.95;3.88;;;12.10;92.00;;;;;;4917159;29;20059;-82
2021/09/06 06:41:39;;;;;;;6.93;3.92;;;12.20;92.10;;;;;;4916667;29;20048;-82
2021/09/06 06:44:05;;;;;;;6.78;3.95;;;12.20;92.10;;;;;;4917515;29;20059;-82
2021/09/06 06:46:31;;;;;;;8.68;4.22;;;12.30;91.90;;;;;;4916988;29;20044;-82
2021/09/06 06:48:57;;;;;;;6.53;4.20;;;12.40;91.80;;;;;;4920122;29;20075;-82
2021/09/06 06:51:23;;;;;;;6.93;3.97;;;12.40;91.50;;;;;;4919940;29;20055;-81
2021/09/06 06:53:48;;;;;;;9.02;4.65;;;12.50;91.40;;;;;;4936626;29;20123;-82
2021/09/06 06:56:14;;;;;;;7.32;4.50;;;12.60;91.20;;;;;;4919985;29;20050;-82
2021/09/06 06:58:39;;;;;;;8.13;5.18;;;12.60;91.20;;;;;;4935911;29;20044;-81
2021/09/06 07:01:05;;;;;;;10.85;7.10;;;12.70;91.10;;;;;;4920111;29;20055;-81
2021/09/06 07:03:30;;;;;;;9.05;5.75;;;12.80;91.10;;;;;;4936920;29;20055;-81
2021/09/06 07:05:56;;;;;;;21.80;15.63;;;12.90;91.20;;;;;;4918645;29;20055;-81
2021/09/06 07:08:22;;;;;;;23.50;15.88;;;13.00;92.50;;;;;;4938127;29;20047;-88
2021/09/06 07:10:47;;;;;;;17.02;11.30;;;13.10;93.40;;;;;;4920327;29;20043;-88
2021/09/06 07:13:13;;;;;;;17.33;12.23;;;13.30;93.00;;;;;;4920149;29;20054;-89
2021/09/06 07:15:40;;;;;;;25.73;16.98;;;13.50;92.60;;;;;;4920226;29;20510;-83
2021/09/06 07:18:07;;;;;;;23.70;15.65;;;13.70;93.40;;;;;;4919783;29;20079;-83
2021/09/06 07:20:34;;;;;;;26.17;16.80;;;13.90;93.50;;;;;;4918487;29;20122;-82
2021/09/06 07:22:59;;;;;;;23.02;14.80;;;14.00;93.90;;;;;;4919901;29;20369;-82
2021/09/06 07:25:25;;;;;;;15.20;9.05;;;14.20;93.70;;;;;;4915949;29;20049;-81
2021/09/06 07:27:51;;;;;;;26.05;16.80;;;14.30;92.80;;;;;;4935450;29;20488;-82
2021/09/06 07:30:16;;;;;;;20.55;13.30;;;14.40;93.30;;;;;;4915736;29;20058;-82
2021/09/06 07:32:44;;;;;;;23.77;16.40;;;14.50;93.30;;;;;;4919025;29;20052;-82
2021/09/06 07:35:10;;;;;;;26.70;16.85;;;14.70;93.60;;;;;;4934909;29;20055;-81
2021/09/06 07:37:36;;;;;;;24.20;15.82;;;14.80;93.80;;;;;;4918004;29;20046;-81
2021/09/06 07:40:02;;;;;;;25.38;15.68;;;15.00;93.70;;;;;;4918749;29;20059;-82
2021/09/06 07:42:28;;;;;;;24.65;15.75;;;15.10;93.60;;;;;;4934435;29;20411;-82
2021/09/06 07:44:53;;;;;;;26.83;17.02;;;15.20;93.40;;;;;;4918689;29;20047;-82
2021/09/06 07:47:19;;;;;;;24.02;16.25;;;15.30;93.40;;;;;;4918536;29;20456;-82
2021/09/06 07:49:46;;;;;;;23.27;14.70;;;15.40;93.20;;;;;;4916320;29;20381;-82
2021/09/06 07:52:13;;;;;;;23.73;15.93;;;15.50;92.90;;;;;;4916990;29;20074;-81
2021/09/06 07:54:38;;;;;;;24.52;16.40;;;15.60;92.70;;;;;;4918425;29;20392;-81
2021/09/06 07:57:04;;;;;;;21.52;14.65;;;15.70;93.00;;;;;;4918006;29;20047;-81
2021/09/06 07:59:29;;;;;;;23.40;15.85;;;15.80;93.00;;;;;;4918404;29;20066;-84
2021/09/06 08:01:56;;;;;;;22.30;15.75;;;15.80;93.00;;;;;;4912727;29;20055;-81
2021/09/06 08:04:21;;;;;;;17.15;12.70;;;15.90;93.10;;;;;;4919367;29;20567;-81
2021/09/06 08:06:47;;;;;;;22.23;13.23;;;16.00;92.70;;;;;;4935376;29;20130;-81
2021/09/06 08:09:14;;;;;;;22.35;13.30;;;16.10;92.50;;;;;;4918483;29;20106;-81
2021/09/06 08:11:40;;;;;;;21.05;12.40;;;16.20;92.70;;;;;;4918601;29;20447;-82
2021/09/06 08:14:05;;;;;;;18.65;12.80;;;16.30;92.40;;;;;;4918664;29;20048;-82
2021/09/06 08:16:32;;;;;;;20.10;12.65;;;16.40;92.20;;;;;;4918391;29;20099;-82
2021/09/06 08:18:58;;;;;;;21.45;12.95;;;16.50;92.20;;;;;;4918266;29;20059;-82
2021/09/06 08:21:24;;;;;;;22.50;12.73;;;16.60;92.10;;;;;;4918991;29;20052;-82
2021/09/06 08:23:50;;;;;;;22.58;11.93;;;16.70;92.10;;;;;;4918027;29;20047;-81
2021/09/06 08:26:15;;;;;;;21.55;12.18;;;16.80;91.80;;;;;;4918157;29;20062;-82
2021/09/06 08:28:41;;;;;;;18.50;11.98;;;16.90;91.80;;;;;;4935049;29;20043;-82
2021/09/06 08:31:07;;;;;;;14.02;9.90;;;17.00;91.60;;;;;;4918075;29;20468;-80
2021/09/06 08:33:33;;;;;;;19.05;12.07;;;17.00;91.00;;;;;;4918303;29;20051;-80
2021/09/06 08:35:58;;;;;;;19.20;12.32;;;17.10;91.40;;;;;;4918708;29;20139;-81
2021/09/06 08:38:24;;;;;;;17.92;12.40;;;17.10;91.70;;;;;;4917936;29;20055;-80
2021/09/06 08:40:50;;;;;;;19.27;12.25;;;17.30;91.30;;;;;;4936445;29;20047;-81
2021/09/06 08:43:16;;;;;;;18.50;11.15;;;17.30;91.10;;;;;;4921890;29;20051;-81
2021/09/06 08:45:42;;;;;;;20.23;11.75;;;17.50;90.60;;;;;;4920823;29;20044;-81
2021/09/06 08:48:07;;;;;;;20.67;13.02;;;17.60;90.20;;;;;;4921564;29;20101;-81
2021/09/06 08:50:34;;;;;;;17.35;9.95;;;17.80;90.00;;;;;;4938526;29;20054;-81
2021/09/06 08:53:00;;;;;;;12.90;9.63;;;17.90;89.50;;;;;;4921198;29;20043;-81
2021/09/06 08:55:26;;;;;;;14.77;10.38;;;18.00;88.50;;;;;;4922157;29;20051;-81
2021/09/06 08:57:52;;;;;;;17.45;11.23;;;18.00;88.00;;;;;;4921380;29;20512;-81
2021/09/06 09:00:26;;;;;;;17.98;11.48;;;18.10;87.90;;;;;;4920670;29;20119;-81
2021/09/06 09:02:52;;;;;;;18.80;10.65;;;18.10;86.40;;;;;;4917026;29;20049;-80
2021/09/06 09:05:18;;;;;;;16.65;11.60;;;18.20;85.90;;;;;;4920432;29;20052;-81
2021/09/06 09:07:44;;;;;;;15.77;11.10;;;18.30;85.90;;;;;;4920923;29;20052;-81
2021/09/06 09:10:12;;;;;;;15.50;10.20;;;18.30;85.70;;;;;;4921639;29;20721;-81
2021/09/06 09:12:38;;;;;;;15.20;10.73;;;18.40;86.10;;;;;;4918737;29;20476;-81
2021/09/06 09:15:05;;;;;;;16.38;10.07;;;18.50;85.00;;;;;;4935932;29;20550;-81
2021/09/06 09:17:31;;;;;;;15.23;10.43;;;18.50;85.00;;;;;;4919315;29;20047;-81
2021/09/06 09:20:04;;;;;;;13.63;8.60;;;18.60;85.10;;;;;;4918714;29;20155;-81
2021/09/06 09:22:38;;;;;;;15.85;10.07;;;18.70;85.70;;;;;;4919676;29;20428;-81
2021/09/06 09:25:06;;;;;;;14.23;10.25;;;18.70;85.40;;;;;;4920705;29;20116;-82
2021/09/06 09:27:40;;;;;;;15.93;10.55;;;18.80;85.10;;;;;;4927061;29;20464;-83
2021/09/06 09:30:21;;;;;;;17.63;10.60;;;18.80;85.00;;;;;;4920035;29;20467;-81
2021/09/06 09:32:47;;;;;;;14.90;9.50;;;18.90;84.00;;;;;;4920566;29;20195;-81
2021/09/06 09:35:13;;;;;;;16.17;9.00;;;19.00;82.20;;;;;;4921239;29;20555;-82
2021/09/06 09:37:40;;;;;;;14.93;9.25;;;19.10;82.20;;;;;;4921948;29;20051;-81
2021/09/06 09:40:10;;;;;;;13.02;9.32;;;19.20;82.80;;;;;;4921265;29;20052;-83
2021/09/06 09:42:50;;;;;;;11.65;8.52;;;19.30;83.80;;;;;;4920408;29;20127;-81
2021/09/06 09:45:22;;;;;;;10.98;7.75;;;19.40;83.90;;;;;;4921699;29;20047;-81
2021/09/06 09:47:56;;;;;;;13.98;8.18;;;19.50;84.70;;;;;;4920824;29;20062;-81
2021/09/06 09:50:24;;;;;;;15.32;9.88;;;19.60;84.30;;;;;;4921213;29;20054;-81
2021/09/06 09:52:52;;;;;;;14.07;9.43;;;19.70;82.40;;;;;;4922152;29;20909;-82
2021/09/06 09:55:19;;;;;;;13.02;9.05;;;19.80;80.80;;;;;;4921854;29;20388;-82
2021/09/06 09:57:45;;;;;;;14.50;8.82;;;19.90;81.20;;;;;;4922409;29;20039;-82
2021/09/06 10:00:14;;;;;;;11.93;8.48;;;19.90;80.00;;;;;;4921959;29;20159;-82
2021/09/06 10:02:45;;;;;;;12.35;8.57;;;20.10;81.10;;;;;;4921188;29;20055;-82
2021/09/06 10:05:12;;;;;;;13.63;9.60;;;20.20;82.20;;;;;;4904149;29;20043;-82
2021/09/06 10:07:44;;;;;;;14.20;9.27;;;20.20;79.40;;;;;;4938799;29;20455;-82
2021/09/06 10:10:17;;;;;;;10.93;8.23;;;20.30;79.50;;;;;;4908182;29;20610;-83
2021/09/06 10:12:43;;;;;;;11.63;8.27;;;20.40;80.90;;;;;;4920665;29;20062;-82
2021/09/06 10:15:09;;;;;;;11.10;8.45;;;20.50;81.90;;;;;;4903284;29;20054;-83
2021/09/06 10:17:38;;;;;;;14.43;8.40;;;20.50;82.90;;;;;;4901359;29;20135;-83
2021/09/06 10:20:24;;;;;;;12.75;8.45;;;20.60;80.80;;;;;;4902271;29;20052;-83
2021/09/06 10:23:07;;;;;;;13.73;8.85;;;20.60;80.50;;;;;;4901387;29;20078;-83
2021/09/06 10:25:34;;;;;;;11.98;8.27;;;20.70;78.30;;;;;;4902609;29;20059;-83
2021/09/06 10:28:04;;;;;;;12.95;8.50;;;20.80;78.70;;;;;;4902164;29;20036;-83
2021/09/06 10:30:40;;;;;;;11.55;7.90;;;20.90;78.30;;;;;;4903783;29;20159;-84
2021/09/06 10:33:08;;;;;;;15.27;9.32;;;21.00;80.20;;;;;;4903592;29;20048;-87
2021/09/06 10:35:34;;;;;;;13.57;8.30;;;21.10;78.10;;;;;;4907106;29;20071;-86
2021/09/06 10:38:10;;;;;;;13.13;8.10;;;21.20;77.80;;;;;;4911830;29;20104;-83
2021/09/06 10:40:38;;;;;;;12.25;8.85;;;21.30;76.60;;;;;;4902739;29;20048;-84
2021/09/06 10:43:22;;;;;;;12.82;8.52;;;21.30;76.40;;;;;;4901469;29;20051;-84
2021/09/06 10:45:50;;;;;;;12.40;8.00;;;21.40;75.20;;;;;;4899308;29;20060;-84
2021/09/06 10:48:25;;;;;;;11.63;7.32;;;21.50;77.60;;;;;;4901244;29;20055;-84
2021/09/06 10:50:54;;;;;;;10.00;7.80;;;21.60;80.00;;;;;;4901234;29;20044;-84
2021/09/06 10:53:22;;;;;;;11.20;7.82;;;21.70;79.20;;;;;;4912570;29;20043;-84
2021/09/06 10:55:49;;;;;;;10.57;6.88;;;21.80;80.30;;;;;;4919594;29;20127;-84
2021/09/06 10:58:15;;;;;;;11.32;7.68;;;21.90;81.50;;;;;;4919590;29;20044;-84
2021/09/06 11:00:40;;;;;;;12.93;7.88;;;22.00;78.70;;;;;;4919507;29;20051;-83
2021/09/06 11:03:06;;;;;;;10.80;7.53;;;22.10;74.20;;;;;;4919900;29;20055;-83
2021/09/06 11:05:32;;;;;;;12.48;7.82;;;22.10;73.50;;;;;;4934351;29;20051;-83
2021/09/06 11:08:07;;;;;;;12.95;7.63;;;22.20;74.00;;;;;;4919776;29;20043;-84
2021/09/06 11:10:33;;;;;;;10.55;7.07;;;22.30;77.50;;;;;;4919702;29;20063;-84
2021/09/06 11:13:01;;;;;;;11.15;7.70;;;22.40;74.10;;;;;;4919074;29;20051;-84
2021/09/06 11:15:27;;;;;;;9.70;7.07;;;22.40;76.40;;;;;;4936804;29;20059;-84
2021/09/06 11:18:07;;;;;;;11.07;6.63;;;22.50;78.40;;;;;;4936280;29;20083;-84
2021/09/06 11:20:34;;;;;;;12.07;6.85;;;22.60;79.90;;;;;;4937082;29;20075;-84
2021/09/06 11:23:08;;;;;;;12.32;7.75;;;22.70;76.90;;;;;;4920726;29;20043;-85
2021/09/06 11:25:38;;;;;;;10.93;7.53;;;22.70;74.10;;;;;;4903335;29;20079;-85
2021/09/06 11:28:12;;;;;;;9.30;6.43;;;22.80;74.60;;;;;;4917574;29;20076;-84
2021/09/06 11:30:43;;;;;;;9.68;6.63;;;22.90;75.10;;;;;;4918562;29;20107;-84
2021/09/06 11:33:10;;;;;;;12.50;6.97;;;22.90;73.30;;;;;;4917028;29;20056;-84
2021/09/06 11:35:37;;;;;;;9.02;6.43;;;23.00;68.90;;;;;;4936032;29;20108;-83
2021/09/06 11:38:04;;;;;;;10.18;6.63;;;23.00;73.70;;;;;;4920823;29;20389;-84
2021/09/06 11:40:30;;;;;;;10.85;6.85;;;23.10;75.70;;;;;;4919760;29;20035;-84
2021/09/06 11:42:58;;;;;;;9.32;6.50;;;23.20;76.60;;;;;;4921262;29;20504;-85
2021/09/06 11:45:25;;;;;;;11.60;6.97;;;23.30;77.40;;;;;;4905005;29;20056;-82
2021/09/06 11:47:51;;;;;;;7.68;6.07;;;23.30;77.90;;;;;;4937165;29;20813;-83
2021/09/06 11:50:16;;;;;;;10.07;6.35;;;23.40;78.70;;;;;;4922779;29;20044;-83
2021/09/06 11:52:44;;;;;;;8.00;6.32;;;23.50;80.10;;;;;;4938384;29;20040;-83
2021/09/06 11:55:13;;;;;;;7.72;5.93;;;23.50;78.80;;;;;;4937028;29;20103;-83
2021/09/06 11:57:39;;;;;;;8.90;6.13;;;23.60;79.30;;;;;;4937302;29;20126;-84
2021/09/06 12:00:05;;;;;;;9.18;6.57;;;23.70;74.60;;;;;;4920073;29;20086;-83
2021/09/06 12:02:31;;;;;;;8.25;6.03;;;23.70;77.10;;;;;;4918542;29;20063;-83
2021/09/06 12:05:07;;;;;;;8.10;5.95;;;23.70;77.80;;;;;;4936734;29;20095;-83
2021/09/06 12:07:35;;;;;;;8.00;5.95;;;23.80;79.20;;;;;;4919490;29;20051;-83
2021/09/06 12:10:01;;;;;;;8.68;6.35;;;23.80;76.30;;;;;;4919164;29;20122;-83
2021/09/06 12:12:27;;;;;;;8.75;5.85;;;23.90;77.80;;;;;;4919913;29;20097;-83
2021/09/06 12:14:54;;;;;;;9.77;6.05;;;24.00;79.50;;;;;;4919129;29;20048;-83
2021/09/06 12:17:20;;;;;;;9.85;6.22;;;24.00;76.00;;;;;;4917654;29;20039;-83
2021/09/06 12:19:50;;;;;;;10.98;6.53;;;24.00;77.80;;;;;;4918858;29;20047;-83
2021/09/06 12:22:22;;;;;;;10.18;6.13;;;24.00;72.30;;;;;;4918202;29;20432;-83
2021/09/06 12:24:49;;;;;;;10.65;6.43;;;24.10;68.90;;;;;;4919341;29;20051;-83
2021/09/06 12:27:18;;;;;;;11.90;6.35;;;24.10;70.20;;;;;;4921471;29;20462;-83
2021/09/06 12:29:44;;;;;;;8.85;6.18;;;24.00;70.60;;;;;;4923018;29;20504;-83
2021/09/06 12:32:13;;;;;;;9.15;6.00;;;24.00;70.20;;;;;;4944396;29;20438;-83
2021/09/06 12:34:39;;;;;;;8.27;6.03;;;24.10;73.60;;;;;;4915089;29;20048;-84
2021/09/06 12:37:05;;;;;;;11.10;6.00;;;24.10;75.50;;;;;;4911119;29;20051;-83